Norwood, Iowa
Current Conditions -  °F | °C
As of 11:55 AM on Thursday 23 Oct 2014 (Local Time) from KCNC Reporting Station
Overcast Overcast  
Wind Chill: 59°   Ceiling: 1400
Heat Index: 59°   Visibility: 10mi
Dew Point: 54°   Wind: 13mph
Humidity: 82%   Direction: 190°S
Pressure: 30.07"   Gusts: NA
Location:  41.0879°N, 93.5007°W
Report Text: KCNC 231655Z AUTO 19011KT 10SM OVC014 15/12 A3007 RMK AO2
Loading
Personal Weather Stations






























Interactive Weather Map
Tropical Storm Tracking
New forecast layout! Learn more

10-Day Weather Forecast

Advertisements
Track Severe Weather on mobile